Map

Track Data

SID SEASON NUMBER BASIN SUBBASIN NAME ISO_TIME NATURE LAT LON WMO_WIND WMO_PRES WMO_AGENCY TRACK_TYPE DIST2LAND LANDFALL IFLAG USA_AGENCY USA_ATCF_ID USA_LAT USA_LON USA_RECORD USA_STATUS USA_WIND USA_PRES USA_SSHS USA_R34_NE USA_R34_SE USA_R34_SW USA_R34_NW USA_R50_NE USA_R50_SE USA_R50_SW USA_R50_NW USA_R64_NE USA_R64_SE USA_R64_SW USA_R64_NW USA_POCI USA_ROCI USA_RMW USA_EYE TOKYO_LAT TOKYO_LON TOKYO_GRADE TOKYO_WIND TOKYO_PRES TOKYO_R50_DIR TOKYO_R50_LONG TOKYO_R50_SHORT TOKYO_R30_DIR TOKYO_R30_LONG TOKYO_R30_SHORT TOKYO_LAND CMA_LAT CMA_LON CMA_CAT CMA_WIND CMA_PRES HKO_LAT HKO_LON HKO_CAT HKO_WIND HKO_PRES NEWDELHI_LAT NEWDELHI_LON NEWDELHI_GRADE NEWDELHI_WIND NEWDELHI_PRES NEWDELHI_CI NEWDELHI_DP NEWDELHI_POCI REUNION_LAT REUNION_LON REUNION_TYPE REUNION_WIND REUNION_PRES REUNION_TNUM REUNION_CI REUNION_RMW REUNION_R34_NE REUNION_R34_SE REUNION_R34_SW REUNION_R34_NW REUNION_R50_NE REUNION_R50_SE REUNION_R50_SW REUNION_R50_NW REUNION_R64_NE REUNION_R64_SE REUNION_R64_SW REUNION_R64_NW BOM_LAT BOM_LON BOM_TYPE BOM_WIND BOM_PRES BOM_TNUM BOM_CI BOM_RMW BOM_R34_NE BOM_R34_SE BOM_R34_SW BOM_R34_NW BOM_R50_NE BOM_R50_SE BOM_R50_SW BOM_R50_NW BOM_R64_NE BOM_R64_SE BOM_R64_SW BOM_R64_NW BOM_ROCI BOM_POCI BOM_EYE BOM_POS_METHOD BOM_PRES_METHOD NADI_LAT NADI_LON NADI_CAT NADI_WIND NADI_PRES WELLINGTON_LAT WELLINGTON_LON WELLINGTON_WIND WELLINGTON_PRES DS824_LAT DS824_LON DS824_STAGE DS824_WIND DS824_PRES TD9636_LAT TD9636_LON TD9636_STAGE TD9636_WIND TD9636_PRES TD9635_LAT TD9635_LON TD9635_WIND TD9635_PRES TD9635_ROCI NEUMANN_LAT NEUMANN_LON NEUMANN_CLASS NEUMANN_WIND NEUMANN_PRES MLC_LAT MLC_LON MLC_CLASS MLC_WIND MLC_PRES USA_GUST BOM_GUST BOM_GUST_PER REUNION_GUST REUNION_GUST_PER USA_SEAHGT USA_SEARAD_NE USA_SEARAD_SE USA_SEARAD_SW USA_SEARAD_NW STORM_SPEED STORM_DIR
1979350S17053 1980 117 SI MM BERENICE 1979-12-15 12:00:00 TS -17.0000 53.0000 reunion main 317 302 O____O___OO_O_ jtwc_sh SH031980 -17.0000 53.0000 35 0 -17.0000 53.0000 99 9.90000 -17.0000 53.0000 TC 35 -17.0000 53.0000 1 -17.0000 53.0000 TC 20 22 212
1979350S17053 1980 117 SI MM BERENICE 1979-12-15 15:00:00 TS -17.9126 52.4071 main 302 267 P____P___PP_P_ SH031980 -17.9330 52.3739 35 0 -17.8978 52.4936 99 -17.9330 52.3739 TC 35 -17.8660 52.4199 1 -17.9330 52.3739 TC 20 21 212
1979350S17053 1980 117 SI MM BERENICE 1979-12-15 18:00:00 TS -18.7610 51.8538 reunion main 272 244 O____O___OP_O_ jtwc_sh SH031980 -18.8000 51.8000 35 0 -18.7000 52.0000 99 9.90000 -18.8000 51.8000 TC 35 -18.7049 51.8690 1 -18.8000 51.8000 TC 20 19 211
1979350S17053 1980 117 SI MM BERENICE 1979-12-15 21:00:00 TS -19.5011 51.3854 main 247 232 P____P___PP_P_ SH031980 -19.5523 51.3321 35 0 -19.3575 51.5472 99 -19.5523 51.3321 TC 35 -19.4912 51.3835 1 -19.5523 51.3321 TC 22 16 209
1979350S17053 1980 117 SI MM BERENICE 1979-12-16 00:00:00 TS -20.1600 51.0400 reunion main 230 222 O____O___OO_O_ jtwc_sh SH031980 -20.2000 51.0000 35 0 -20.0000 51.2000 99 9.90000 -20.2000 51.0000 TC 35 -20.2000 51.0000 2 35 -20.2000 51.0000 TC 25 14 202
1979350S17053 1980 117 SI MM BERENICE 1979-12-16 03:00:00 TS -20.8128 50.8311 main 226 226 P____P___PP_P_ SH031980 -20.7948 50.8045 35 0 -20.8673 50.9973 99 -20.7948 50.8045 TC 35 -20.8120 50.7445 2 -20.7948 50.8045 TC 25 12 194
1979350S17053 1980 117 SI MM BERENICE 1979-12-16 06:00:00 TS -21.3657 50.7194 reunion main 242 240 O____O___OP_O_ jtwc_sh SH031980 -21.3000 50.7000 35 0 -21.6000 50.9000 2 9.90000 -21.3000 50.7000 TC 35 -21.3287 50.5972 2 -21.3000 50.7000 TC 25 10 192
1979350S17053 1980 117 SI MM BERENICE 1979-12-16 09:00:00 TS -21.7747 50.6172 main 241 241 P____P___PP_P_ SH031980 -21.7450 50.5775 35 0 -21.8824 50.8272 2 -21.7450 50.5775 TC 35 -21.7561 50.5265 2 -21.7450 50.5775 TC 27 7 192
1979350S17053 1980 117 SI MM BERENICE 1979-12-16 12:00:00 TS -22.0800 50.5600 reunion main 249 241 O____O___OO_O_ jtwc_sh SH031980 -22.1000 50.5000 35 0 -22.0000 50.8000 99 9.90000 -22.1000 50.5000 TC 35 -22.1000 50.5000 2 -22.1000 50.5000 TC 30 6 187
1979350S17053 1980 117 SI MM BERENICE 1979-12-16 15:00:00 TS -22.3625 50.5397 main 246 246 P____P___PP_P_ SH031980 -22.3875 50.4849 35 0 -22.2425 50.7925 99 -22.3875 50.4849 TC 35 -22.4074 50.4514 2 -22.3875 50.4849 TC 30 5 0
1979350S17053 1980 117 SI MM BERENICE 1979-12-16 18:00:00 TS -22.5870 50.5479 reunion main 253 253 O____O___OP_O_ jtwc_sh SH031980 -22.6000 50.5000 35 0 -22.5000 50.8000 99 9.90000 -22.6000 50.5000 TC 35 -22.6348 50.4394 2 -22.6000 50.5000 TC 30 4 179
1979350S17053 1980 117 SI MM BERENICE 1979-12-16 21:00:00 TS -22.7830 50.5471 main 261 261 P____P___PP_P_ SH031980 -22.7875 50.4925 35 0 -22.7575 50.8000 99 -22.7875 50.4925 TC 35 -22.7949 50.4578 2 -22.7875 50.4925 TC 32 3 177
1979350S17053 1980 117 SI MM BERENICE 1979-12-17 00:00:00 TS -22.9200 50.5600 reunion main 275 275 O____O___OO_O_ jtwc_sh SH031980 -22.9000 50.5000 35 0 -23.0000 50.8000 99 9.90000 -22.9000 50.5000 TC 35 -22.9000 50.5000 2 35 -22.9000 50.5000 TC 35 2 171
1979350S17053 1980 117 SI MM BERENICE 1979-12-17 03:00:00 TS -22.9576 50.5926 main 280 280 P____P___PP_P_ SH031980 -22.9150 50.5350 35 0 -23.1775 50.8000 99 -22.9150 50.5350 TC 35 -22.8657 50.5579 2 -22.9150 50.5350 TC 35 1 128
1979350S17053 1980 117 SI MM BERENICE 1979-12-17 06:00:00 TS -22.9800 50.6471 reunion main 280 280 O____O___OP_O_ jtwc_sh SH031980 -22.9000 50.6000 35 0 -23.4000 50.8000 2 9.90000 -22.9000 50.6000 TC 35 -22.8001 50.6356 2 -22.9000 50.6000 TC 35 1 121
1979350S17053 1980 117 SI MM BERENICE 1979-12-17 09:00:00 TS -23.0289 50.7242 main 289 289 P____P___PP_P_ SH031980 -22.8525 50.7001 35 0 -23.7775 50.8000 2 -22.8525 50.7001 TC 35 -22.8095 50.7205 2 -22.8525 50.7001 TC 37 3 151
1979350S17053 1980 117 SI MM BERENICE 1979-12-17 12:00:00 TS -23.2400 50.8000 reunion main 307 307 O____O___OO_O_ jtwc_sh SH031980 -23.0000 50.8000 35 0 -24.2000 50.8000 99 9.90000 -23.0000 50.8000 TC 35 -23.0000 50.8000 2 -23.0000 50.8000 TC 40 7 172
1979350S17053 1980 117 SI MM BERENICE 1979-12-17 15:00:00 TS -23.7487 50.8350 main 317 317 P____P___PP_P_ SH031980 -23.5450 50.8575 35 0 -24.5500 50.7851 99 -23.5450 50.8575 TC 35 -23.5585 50.8175 2 -23.5450 50.8575 TC 40 12 177
1979350S17053 1980 117 SI MM BERENICE 1979-12-17 18:00:00 TS -24.4189 50.8668 reunion main 343 343 O____O___OP_O_ jtwc_sh SH031980 -24.3000 50.9000 35 0 -24.9000 50.8000 99 9.90000 -24.3000 50.9000 TC 35 -24.2947 50.8340 2 -24.3000 50.9000 TC 40 14 177
1979350S17053 1980 117 SI MM BERENICE 1979-12-17 21:00:00 TS -25.1202 50.9148 main 364 364 P____P___PP_P_ SH031980 -25.0800 50.9352 35 0 -25.2775 50.8850 99 -25.0800 50.9352 TC 35 -25.0835 50.8833 2 -25.0800 50.9352 TC 40 14 175
1979350S17053 1980 117 SI MM BERENICE 1979-12-18 00:00:00 TS -25.7800 51.0000 reunion main 399 399 O____O___OO_O_ jtwc_sh SH031980 -25.8000 51.0000 35 0 -25.7000 51.0000 99 9.90000 -25.8000 51.0000 TC 35 -25.8000 51.0000 2 35 -25.8000 51.0000 TC 40 12 172
1979350S17053 1980 117 SI MM BERENICE 1979-12-18 03:00:00 TS -26.2964 51.0954 main 426 426 P____P___PP_P_ SH031980 -26.3172 51.0903 35 0 -26.2148 51.0554 99 -26.3172 51.0903 TC 35 -26.3157 51.1507 2 -26.3172 51.0903 TC 42 10 164
1979350S17053 1980 117 SI MM BERENICE 1979-12-18 06:00:00 MX -26.7070 51.2964 reunion main 460 460 O____O___OP_O_ jtwc_sh SH031980 -26.7000 51.3000 35 0 -26.7000 51.2000 5 9.90000 -26.7000 51.3000 TC 35 -26.7348 51.3822 2 -26.7000 51.3000 TC 45 9 147
1979350S17053 1980 117 SI MM BERENICE 1979-12-18 09:00:00 MX -27.0451 51.6485 main 501 501 P____P___PP_P_ SH031980 -27.0446 51.6600 35 0 -27.0300 51.5401 5 -27.0446 51.6600 TC 35 -27.0618 51.7226 2 -27.0446 51.6600 TC 45 10 128
1979350S17053 1980 117 SI MM BERENICE 1979-12-18 12:00:00 TS -27.3000 52.1600 reunion main 569 569 O____O___OO_O_ jtwc_sh SH031980 -27.3000 52.2000 35 0 -27.3000 52.0000 99 9.90000 -27.3000 52.2000 TC 35 -27.3000 52.2000 2 -27.3000 52.2000 TC 45 11 115
1979350S17053 1980 117 SI MM BERENICE 1979-12-18 15:00:00 TS -27.5289 52.7910 main 632 632 P____P___PP_P_ SH031980 -27.4951 52.8974 35 0 -27.6515 52.4171 99 -27.4951 52.8974 TC 35 -27.5077 52.8457 2 -27.4951 52.8974 TC 47 13 107
1979350S17053 1980 117 SI MM BERENICE 1979-12-18 18:00:00 TS -27.6650 53.5442 reunion main 704 704 O____O___OP_O_ jtwc_sh SH031980 -27.6000 53.7000 35 0 -27.9000 53.0000 99 9.90000 -27.6000 53.7000 TC 35 -27.6249 53.6212 2 -27.6000 53.7000 TC 50 14 98
1979350S17053 1980 117 SI MM BERENICE 1979-12-18 21:00:00 TS -27.7134 54.3731 main 714 693 P____P___PP_P_ SH031980 -27.6524 54.5074 35 0 -27.9555 53.8821 99 -27.6524 54.5074 TC 35 -27.6543 54.4611 2 -27.6524 54.5074 TC 47 15 89
1979350S17053 1980 117 SI MM BERENICE 1979-12-19 00:00:00 TS -27.6400 55.2200 reunion main 693 671 O____O___OO_O_ jtwc_sh SH031980 -27.6000 55.3000 35 0 -27.8000 54.9000 99 9.90000 -27.6000 55.3000 TC 35 -27.6000 55.3000 2 -27.6000 55.3000 TC 45 15 79
1979350S17053 1980 117 SI MM BERENICE 1979-12-19 03:00:00 TS -27.4276 55.9854 main 671 654 P____P___PP_P_ SH031980 -27.4293 56.0078 35 0 -27.4227 55.8967 99 -27.4293 56.0078 TC 35 -27.4274 56.0069 2 -27.4293 56.0078 TC 45 14 70
1979350S17053 1980 117 SI MM BERENICE 1979-12-19 06:00:00 MX -27.1576 56.7207 reunion main 657 638 O____O___OP_O_ jtwc_sh SH031980 -27.2000 56.7000 35 0 -27.0000 56.8000 5 9.90000 -27.2000 56.7000 TC 35 -27.1883 56.7034 2 -27.2000 56.7000 TC 45 14 68
1979350S17053 1980 117 SI MM BERENICE 1979-12-19 09:00:00 MX -26.9188 57.4252 main 641 639 P____P___PP_P_ SH031980 -26.9693 57.4204 35 0 -26.7307 57.4419 5 -26.9693 57.4204 TC 35 -26.9552 57.4227 2 -26.9693 57.4204 TC 42 14 73
1979350S17053 1980 117 SI MM BERENICE 1979-12-19 12:00:00 TS -26.7600 58.1800 reunion main 658 652 O____O___OO_O_ jtwc_sh SH031980 -26.8000 58.2000 35 0 -26.6000 58.1000 99 9.90000 -26.8000 58.2000 TC 35 -26.8000 58.2000 2 35 -26.8000 58.2000 TC 40 15 82
1979350S17053 1980 117 SI MM BERENICE 1979-12-19 15:00:00 TS -26.7121 59.0572 main 690 690 P____P___PP_P_ SH031980 -26.7395 59.0627 35 0 -26.5828 59.0476 99 -26.7395 59.0627 TC 35 -26.7593 59.0505 2 35 -26.7395 59.0627 TC 37 16 91
1979350S17053 1980 117 SI MM BERENICE 1979-12-19 18:00:00 TS -26.7820 60.0137 reunion main 741 741 O____O___OP_O_ jtwc_sh SH031980 -26.8000 60.0000 35 0 -26.7000 60.1000 99 9.90000 -26.8000 60.0000 TC 35 -26.8097 59.9687 2 35 -26.8000 60.0000 TC 35 17 97
1979350S17053 1980 117 SI MM BERENICE 1979-12-19 21:00:00 TS -26.9340 60.9943 main 790 790 P____P___PP_P_ SH031980 -26.9393 60.9706 35 0 -26.8970 61.1077 99 -26.9393 60.9706 TC 35 -26.9553 60.9524 2 35 -26.9393 60.9706 TC 35 18 103
1979350S17053 1980 117 SI MM BERENICE 1979-12-20 00:00:00 TS -27.2000 62.0200 reunion main 866 866 O____O___OO_O_ jtwc_sh SH031980 -27.2000 62.0000 35 0 -27.2000 62.1000 99 9.90000 -27.2000 62.0000 TC 35 -27.2000 62.0000 2 35 -27.2000 62.0000 TC 35 19 109
1979350S17053 1980 117 SI MM BERENICE 1979-12-20 03:00:00 TS -27.5620 63.0451 main 958 958 P____P___PP_P_ SH031980 -27.5615 63.0629 35 0 -27.5757 63.0133 99 -27.5615 63.0629 TC 35 -27.5500 63.0238 2 -27.5615 63.0629 TC 35 20 113
1979350S17053 1980 117 SI MM BERENICE 1979-12-20 06:00:00 MX -27.9975 64.1448 reunion main 1059 1059 O____O___OP_O_ jtwc_sh SH031980 -28.0000 64.2000 35 0 -28.0000 64.0000 5 9.90000 -28.0000 64.2000 TC 35 -27.9877 64.1239 2 -28.0000 64.2000 TC 35 22 114
1979350S17053 1980 117 SI MM BERENICE 1979-12-20 09:00:00 MX -28.4580 65.3290 main 1178 1178 P____P___PP_P_ SH031980 -28.4701 65.3677 35 0 -28.4225 65.2047 5 -28.4701 65.3677 TC 35 -28.4569 65.3373 2 -28.4701 65.3677 TC 35 24 112
1979350S17053 1980 117 SI MM BERENICE 1979-12-20 12:00:00 TS -28.8800 66.6600 reunion main 1305 1305 O____O___OO_O_ jtwc_sh SH031980 -28.9000 66.7000 35 0 -28.8000 66.5000 99 9.90000 -28.9000 66.7000 TC 35 -28.9000 66.7000 2 -28.9000 66.7000 TC 35 26 105
1979350S17053 1980 117 SI MM BERENICE 1979-12-20 15:00:00 TS -29.1149 68.1785 main 1428 1428 P____P___PP_P_ SH031980 -29.1719 68.2773 35 0 -29.0695 67.6920 99 -29.1719 68.2773 TC 35 -28.9895 68.3688 2 -29.1719 68.2773 TC 35 28 99
1979350S17053 1980 117 SI MM BERENICE 1979-12-20 18:00:00 TS -29.3138 69.8310 reunion main 1564 1564 O____O___OP_O_ jtwc_sh SH031980 -29.4000 70.0000 35 0 -29.3000 69.0000 99 9.90000 -29.4000 70.0000 TC 35 -29.0688 70.1552 2 -29.4000 70.0000 TC 35 30 98
1979350S17053 1980 117 SI MM BERENICE 1979-12-20 21:00:00 TS -29.5123 71.5836 main 1721 1721 P____P___PP_P_ SH031980 -29.5511 71.8159 35 0 -29.5713 70.5597 99 -29.5511 71.8159 TC 35 -29.3368 71.9105 2 -29.5511 71.8159 TC 35 31 102
1979350S17053 1980 117 SI MM BERENICE 1979-12-21 00:00:00 TS -29.9684 73.3105 reunion main 1889 1889 O____O___OO_O_ jtwc_sh SH031980 -30.0000 73.5000 35 0 -29.8000 72.3000 99 9.90000 -30.0000 73.5000 TC 35 -30.0000 73.5000 1 -30.0000 73.5000 TC 35 31 117
1979350S17053 1980 117 SI MM BERENICE 1979-12-21 03:00:00 TS -30.8992 74.7771 main 2050 1922 P____P___PP_P_ SH031980 -30.9556 74.8656 -1 -29.9350 74.1301 99 -30.9556 74.8656 TC -31.2120 74.8350 1 -30.9556 74.8656 TC 32 33 137
1979350S17053 1980 117 SI MM BERENICE 1979-12-21 06:00:00 TS -32.3968 75.9938 reunion main 1913 1708 O____O___OP_O_ jtwc_sh SH031980 -32.5000 76.0000 -1 -30.0000 76.0000 6 9.90000 -32.5000 76.0000 TC -32.8863 75.9732 1 -32.5000 76.0000 TC 30 42 153
1979350S17053 1980 117 SI MM BERENICE 1979-12-21 09:00:00 TS -34.6667 77.0096 main 1687 1481 P________PP_P_ SH031980 -34.5992 77.0126 -1 6 -34.5992 77.0126 TC -34.8693 77.0008 1 -34.5992 77.0126 TC 30 49 160
1979350S17053 1980 117 SI MM BERENICE 1979-12-21 12:00:00 TS -37.0000 78.0000 main 1474 O________OO_O_ jtwc_sh SH031980 -37.0000 78.0000 -1 -37.0000 78.0000 TC -37.0000 78.0000 1 -37.0000 78.0000 TC 30 49 161

About IBTrACS Database

This database is a web-friendly format of International Best Track Archive for Climate Stewardship (IBTrACS), a global best track data archive curated by NOAA dating back to 1842.

Updated: 2021-10-08